sensor_id;sensor_type;location;lat;lon;timestamp;temperature;humidity
11664;DHT22;72375;59.302;18.204;2024-01-30T00:01:55;6.20;99.90
11664;DHT22;72375;59.302;18.204;2024-01-30T00:04:41;6.10;99.90
11664;DHT22;72375;59.302;18.204;2024-01-30T00:07:26;6.10;99.90
11664;DHT22;72375;59.302;18.204;2024-01-30T00:10:12;6.10;99.90
11664;DHT22;72375;59.302;18.204;2024-01-30T00:12:58;6.10;99.90
11664;DHT22;72375;59.302;18.204;2024-01-30T00:15:43;6.10;99.90
11664;DHT22;72375;59.302;18.204;2024-01-30T00:18:30;6.00;99.90
11664;DHT22;72375;59.302;18.204;2024-01-30T00:21:16;6.10;99.90
11664;DHT22;72375;59.302;18.204;2024-01-30T00:24:02;6.00;99.90
11664;DHT22;72375;59.302;18.204;2024-01-30T00:26:47;6.10;99.90
11664;DHT22;72375;59.302;18.204;2024-01-30T00:29:33;6.00;99.90
11664;DHT22;72375;59.302;18.204;2024-01-30T00:32:18;6.00;99.90
11664;DHT22;72375;59.302;18.204;2024-01-30T00:35:06;5.90;99.90
11664;DHT22;72375;59.302;18.204;2024-01-30T00:37:54;5.90;99.90
11664;DHT22;72375;59.302;18.204;2024-01-30T00:40:40;5.90;99.90
11664;DHT22;72375;59.302;18.204;2024-01-30T00:43:25;5.90;99.90
11664;DHT22;72375;59.302;18.204;2024-01-30T00:46:11;5.70;99.90
11664;DHT22;72375;59.302;18.204;2024-01-30T00:48:57;5.60;99.90
11664;DHT22;72375;59.302;18.204;2024-01-30T00:51:44;5.60;99.90
11664;DHT22;72375;59.302;18.204;2024-01-30T00:54:29;5.60;99.90
11664;DHT22;72375;59.302;18.204;2024-01-30T00:57:15;5.60;99.90
11664;DHT22;72375;59.302;18.204;2024-01-30T01:00:00;5.60;99.90
11664;DHT22;72375;59.302;18.204;2024-01-30T01:02:46;5.60;99.90
11664;DHT22;72375;59.302;18.204;2024-01-30T01:05:32;5.60;99.90
11664;DHT22;72375;59.302;18.204;2024-01-30T01:08:19;5.60;99.90
11664;DHT22;72375;59.302;18.204;2024-01-30T01:11:04;5.60;99.90
11664;DHT22;72375;59.302;18.204;2024-01-30T01:13:50;5.60;99.90
11664;DHT22;72375;59.302;18.204;2024-01-30T01:16:36;5.60;99.90
11664;DHT22;72375;59.302;18.204;2024-01-30T01:19:22;5.50;99.90
11664;DHT22;72375;59.302;18.204;2024-01-30T01:22:07;5.50;99.90
11664;DHT22;72375;59.302;18.204;2024-01-30T01:24:54;5.50;99.90
11664;DHT22;72375;59.302;18.204;2024-01-30T01:27:40;5.40;99.90
11664;DHT22;72375;59.302;18.204;2024-01-30T01:30:27;5.40;99.90
11664;DHT22;72375;59.302;18.204;2024-01-30T01:33:13;5.50;99.90
11664;DHT22;72375;59.302;18.204;2024-01-30T01:35:59;5.40;99.90
11664;DHT22;72375;59.302;18.204;2024-01-30T01:38:46;5.40;99.90
11664;DHT22;72375;59.302;18.204;2024-01-30T01:41:33;5.30;99.90
11664;DHT22;72375;59.302;18.204;2024-01-30T01:44:19;5.20;99.90
11664;DHT22;72375;59.302;18.204;2024-01-30T01:47:05;5.20;99.90
11664;DHT22;72375;59.302;18.204;2024-01-30T01:49:50;5.20;99.90
11664;DHT22;72375;59.302;18.204;2024-01-30T01:52:37;5.10;99.90
11664;DHT22;72375;59.302;18.204;2024-01-30T01:55:24;5.10;99.90
11664;DHT22;72375;59.302;18.204;2024-01-30T01:58:14;5.10;99.90
11664;DHT22;72375;59.302;18.204;2024-01-30T02:00:59;5.00;99.90
11664;DHT22;72375;59.302;18.204;2024-01-30T02:03:46;4.90;99.90
11664;DHT22;72375;59.302;18.204;2024-01-30T02:06:32;4.90;99.90
11664;DHT22;72375;59.302;18.204;2024-01-30T02:09:18;5.00;99.90
11664;DHT22;72375;59.302;18.204;2024-01-30T02:12:04;4.80;99.90
11664;DHT22;72375;59.302;18.204;2024-01-30T02:14:51;4.80;99.90
11664;DHT22;72375;59.302;18.204;2024-01-30T02:17:37;4.70;99.90
11664;DHT22;72375;59.302;18.204;2024-01-30T02:20:24;4.80;99.90
11664;DHT22;72375;59.302;18.204;2024-01-30T02:23:12;4.70;99.90
11664;DHT22;72375;59.302;18.204;2024-01-30T02:25:58;4.70;99.90
11664;DHT22;72375;59.302;18.204;2024-01-30T02:28:44;4.60;99.90
11664;DHT22;72375;59.302;18.204;2024-01-30T02:31:29;4.60;99.90
11664;DHT22;72375;59.302;18.204;2024-01-30T02:34:15;4.70;99.90
11664;DHT22;72375;59.302;18.204;2024-01-30T02:37:01;4.60;99.90
11664;DHT22;72375;59.302;18.204;2024-01-30T02:39:48;4.60;99.90
11664;DHT22;72375;59.302;18.204;2024-01-30T02:42:33;4.60;99.90
11664;DHT22;72375;59.302;18.204;2024-01-30T02:45:19;4.70;99.90
11664;DHT22;72375;59.302;18.204;2024-01-30T02:48:05;4.50;99.90
11664;DHT22;72375;59.302;18.204;2024-01-30T02:50:51;4.50;99.90
11664;DHT22;72375;59.302;18.204;2024-01-30T02:53:36;4.40;99.90
11664;DHT22;72375;59.302;18.204;2024-01-30T02:56:24;4.40;99.90
11664;DHT22;72375;59.302;18.204;2024-01-30T02:59:09;4.40;99.90
11664;DHT22;72375;59.302;18.204;2024-01-30T03:01:55;4.50;99.90
11664;DHT22;72375;59.302;18.204;2024-01-30T03:04:41;4.50;99.90
11664;DHT22;72375;59.302;18.204;2024-01-30T03:07:26;4.50;99.90
11664;DHT22;72375;59.302;18.204;2024-01-30T03:10:12;4.50;99.90
11664;DHT22;72375;59.302;18.204;2024-01-30T03:12:59;4.40;99.90
11664;DHT22;72375;59.302;18.204;2024-01-30T03:15:44;4.40;99.90
11664;DHT22;72375;59.302;18.204;2024-01-30T03:18:30;4.40;99.90
11664;DHT22;72375;59.302;18.204;2024-01-30T03:21:16;4.30;99.90
11664;DHT22;72375;59.302;18.204;2024-01-30T03:24:02;4.30;99.90
11664;DHT22;72375;59.302;18.204;2024-01-30T03:26:47;4.30;99.90
11664;DHT22;72375;59.302;18.204;2024-01-30T03:29:34;4.30;99.90
11664;DHT22;72375;59.302;18.204;2024-01-30T03:32:20;4.20;99.90
11664;DHT22;72375;59.302;18.204;2024-01-30T03:35:06;4.20;99.90
11664;DHT22;72375;59.302;18.204;2024-01-30T03:37:52;4.20;99.90
11664;DHT22;72375;59.302;18.204;2024-01-30T03:40:38;4.20;99.90
11664;DHT22;72375;59.302;18.204;2024-01-30T03:43:24;4.20;99.90
11664;DHT22;72375;59.302;18.204;2024-01-30T03:46:11;4.10;99.90
11664;DHT22;72375;59.302;18.204;2024-01-30T03:48:57;4.10;99.90
11664;DHT22;72375;59.302;18.204;2024-01-30T03:51:42;4.20;99.90
11664;DHT22;72375;59.302;18.204;2024-01-30T03:54:28;4.20;99.90
11664;DHT22;72375;59.302;18.204;2024-01-30T03:57:14;4.60;99.90
11664;DHT22;72375;59.302;18.204;2024-01-30T04:00:00;4.10;99.90
11664;DHT22;72375;59.302;18.204;2024-01-30T04:02:47;4.00;99.90
11664;DHT22;72375;59.302;18.204;2024-01-30T04:05:33;4.00;99.90
11664;DHT22;72375;59.302;18.204;2024-01-30T04:08:19;3.90;99.90
11664;DHT22;72375;59.302;18.204;2024-01-30T04:11:05;4.00;99.90
11664;DHT22;72375;59.302;18.204;2024-01-30T04:13:51;4.00;99.90
11664;DHT22;72375;59.302;18.204;2024-01-30T04:16:36;4.00;99.90
11664;DHT22;72375;59.302;18.204;2024-01-30T04:19:23;4.20;99.90
11664;DHT22;72375;59.302;18.204;2024-01-30T04:22:09;3.90;99.90
11664;DHT22;72375;59.302;18.204;2024-01-30T04:24:55;3.90;99.90
11664;DHT22;72375;59.302;18.204;2024-01-30T04:27:41;3.90;99.90
11664;DHT22;72375;59.302;18.204;2024-01-30T04:30:27;3.90;99.90
11664;DHT22;72375;59.302;18.204;2024-01-30T04:33:12;3.90;99.90
11664;DHT22;72375;59.302;18.204;2024-01-30T04:36:00;3.90;99.90
11664;DHT22;72375;59.302;18.204;2024-01-30T04:38:45;4.30;99.90
11664;DHT22;72375;59.302;18.204;2024-01-30T04:41:31;4.10;99.90
11664;DHT22;72375;59.302;18.204;2024-01-30T04:44:16;3.80;99.90
11664;DHT22;72375;59.302;18.204;2024-01-30T04:47:02;3.80;99.90
11664;DHT22;72375;59.302;18.204;2024-01-30T04:49:51;3.80;99.90
11664;DHT22;72375;59.302;18.204;2024-01-30T04:52:38;3.70;99.90
11664;DHT22;72375;59.302;18.204;2024-01-30T04:55:24;3.80;99.90
11664;DHT22;72375;59.302;18.204;2024-01-30T04:58:09;3.80;99.90
11664;DHT22;72375;59.302;18.204;2024-01-30T05:00:55;3.90;99.90
11664;DHT22;72375;59.302;18.204;2024-01-30T05:03:41;3.80;99.90
11664;DHT22;72375;59.302;18.204;2024-01-30T05:06:27;3.80;99.90
11664;DHT22;72375;59.302;18.204;2024-01-30T05:09:14;3.80;99.90
11664;DHT22;72375;59.302;18.204;2024-01-30T05:11:59;3.70;99.90
11664;DHT22;72375;59.302;18.204;2024-01-30T05:14:45;3.70;99.90
11664;DHT22;72375;59.302;18.204;2024-01-30T05:17:30;3.70;99.90
11664;DHT22;72375;59.302;18.204;2024-01-30T05:20:16;3.70;99.90
11664;DHT22;72375;59.302;18.204;2024-01-30T05:23:02;3.80;99.90
11664;DHT22;72375;59.302;18.204;2024-01-30T05:25:50;3.70;99.90
11664;DHT22;72375;59.302;18.204;2024-01-30T05:28:35;3.80;99.90
11664;DHT22;72375;59.302;18.204;2024-01-30T05:31:21;3.70;99.90
11664;DHT22;72375;59.302;18.204;2024-01-30T05:34:06;3.90;99.90
11664;DHT22;72375;59.302;18.204;2024-01-30T05:36:53;3.70;99.90
11664;DHT22;72375;59.302;18.204;2024-01-30T05:39:38;3.80;99.90
11664;DHT22;72375;59.302;18.204;2024-01-30T05:42:26;3.80;99.90
11664;DHT22;72375;59.302;18.204;2024-01-30T05:45:12;3.70;99.90
11664;DHT22;72375;59.302;18.204;2024-01-30T05:47:57;3.70;99.90
11664;DHT22;72375;59.302;18.204;2024-01-30T05:50:43;3.70;99.90
11664;DHT22;72375;59.302;18.204;2024-01-30T05:53:29;3.60;99.90
11664;DHT22;72375;59.302;18.204;2024-01-30T05:56:14;3.60;99.90
11664;DHT22;72375;59.302;18.204;2024-01-30T05:59:01;3.60;99.90
11664;DHT22;72375;59.302;18.204;2024-01-30T06:01:47;3.60;99.90
11664;DHT22;72375;59.302;18.204;2024-01-30T06:04:32;3.60;99.90
11664;DHT22;72375;59.302;18.204;2024-01-30T06:07:18;3.60;99.90
11664;DHT22;72375;59.302;18.204;2024-01-30T06:10:05;3.60;99.90
11664;DHT22;72375;59.302;18.204;2024-01-30T06:12:51;3.70;99.90
11664;DHT22;72375;59.302;18.204;2024-01-30T06:15:38;3.60;99.90
11664;DHT22;72375;59.302;18.204;2024-01-30T06:18:23;3.70;99.90
11664;DHT22;72375;59.302;18.204;2024-01-30T06:21:11;3.60;99.90
11664;DHT22;72375;59.302;18.204;2024-01-30T06:23:56;3.60;99.90
11664;DHT22;72375;59.302;18.204;2024-01-30T06:26:42;3.60;99.90
11664;DHT22;72375;59.302;18.204;2024-01-30T06:29:28;3.70;99.90
11664;DHT22;72375;59.302;18.204;2024-01-30T06:32:15;3.60;99.90
11664;DHT22;72375;59.302;18.204;2024-01-30T06:35:00;3.60;99.90
11664;DHT22;72375;59.302;18.204;2024-01-30T06:37:46;3.60;99.90
11664;DHT22;72375;59.302;18.204;2024-01-30T06:40:31;3.60;99.90
11664;DHT22;72375;59.302;18.204;2024-01-30T06:43:17;3.80;99.90
11664;DHT22;72375;59.302;18.204;2024-01-30T06:46:03;3.70;99.90
11664;DHT22;72375;59.302;18.204;2024-01-30T06:48:50;3.60;99.90
11664;DHT22;72375;59.302;18.204;2024-01-30T06:51:36;3.60;99.90
11664;DHT22;72375;59.302;18.204;2024-01-30T06:54:22;3.60;99.90
11664;DHT22;72375;59.302;18.204;2024-01-30T06:57:07;3.60;99.90
11664;DHT22;72375;59.302;18.204;2024-01-30T06:59:56;3.60;99.90
11664;DHT22;72375;59.302;18.204;2024-01-30T07:02:41;3.60;99.90
11664;DHT22;72375;59.302;18.204;2024-01-30T07:05:28;3.60;99.90
11664;DHT22;72375;59.302;18.204;2024-01-30T07:08:14;3.60;99.90
11664;DHT22;72375;59.302;18.204;2024-01-30T07:11:01;3.60;99.90
11664;DHT22;72375;59.302;18.204;2024-01-30T07:13:47;3.60;99.90
11664;DHT22;72375;59.302;18.204;2024-01-30T07:16:32;3.60;99.90
11664;DHT22;72375;59.302;18.204;2024-01-30T07:19:18;3.60;99.90
11664;DHT22;72375;59.302;18.204;2024-01-30T07:22:05;3.60;99.90
11664;DHT22;72375;59.302;18.204;2024-01-30T07:24:51;3.60;99.90
11664;DHT22;72375;59.302;18.204;2024-01-30T07:27:36;3.70;99.90
11664;DHT22;72375;59.302;18.204;2024-01-30T07:30:22;3.60;99.90
11664;DHT22;72375;59.302;18.204;2024-01-30T07:33:08;3.70;99.90
11664;DHT22;72375;59.302;18.204;2024-01-30T07:35:54;3.70;99.90
11664;DHT22;72375;59.302;18.204;2024-01-30T07:38:41;3.70;99.90
11664;DHT22;72375;59.302;18.204;2024-01-30T07:41:27;3.70;99.90
11664;DHT22;72375;59.302;18.204;2024-01-30T07:44:12;3.70;99.90
11664;DHT22;72375;59.302;18.204;2024-01-30T07:46:58;3.70;99.90
11664;DHT22;72375;59.302;18.204;2024-01-30T07:49:43;3.70;99.90
11664;DHT22;72375;59.302;18.204;2024-01-30T07:52:29;3.70;99.90
11664;DHT22;72375;59.302;18.204;2024-01-30T07:55:27;3.70;99.90
11664;DHT22;72375;59.302;18.204;2024-01-30T07:58:20;3.70;99.90
11664;DHT22;72375;59.302;18.204;2024-01-30T08:01:06;3.70;99.90
11664;DHT22;72375;59.302;18.204;2024-01-30T08:03:51;3.80;99.90
11664;DHT22;72375;59.302;18.204;2024-01-30T08:06:37;3.80;99.90
11664;DHT22;72375;59.302;18.204;2024-01-30T08:09:23;3.80;99.90
11664;DHT22;72375;59.302;18.204;2024-01-30T08:12:10;3.80;99.90
11664;DHT22;72375;59.302;18.204;2024-01-30T08:14:57;3.80;99.90
11664;DHT22;72375;59.302;18.204;2024-01-30T08:17:43;3.80;99.90
11664;DHT22;72375;59.302;18.204;2024-01-30T08:20:29;3.80;99.90
11664;DHT22;72375;59.302;18.204;2024-01-30T08:23:15;3.80;99.90
11664;DHT22;72375;59.302;18.204;2024-01-30T08:26:00;3.80;99.90
11664;DHT22;72375;59.302;18.204;2024-01-30T08:28:48;4.20;99.90
11664;DHT22;72375;59.302;18.204;2024-01-30T08:31:34;3.90;99.90
11664;DHT22;72375;59.302;18.204;2024-01-30T08:34:19;3.80;99.90
11664;DHT22;72375;59.302;18.204;2024-01-30T08:37:05;3.90;99.90
11664;DHT22;72375;59.302;18.204;2024-01-30T08:39:51;3.90;99.90
11664;DHT22;72375;59.302;18.204;2024-01-30T08:42:36;3.90;99.90
11664;DHT22;72375;59.302;18.204;2024-01-30T08:45:24;3.90;99.90
11664;DHT22;72375;59.302;18.204;2024-01-30T08:48:09;3.90;99.90
11664;DHT22;72375;59.302;18.204;2024-01-30T08:50:55;4.00;99.90
11664;DHT22;72375;59.302;18.204;2024-01-30T08:53:40;3.90;99.90
11664;DHT22;72375;59.302;18.204;2024-01-30T08:56:26;4.00;99.90
11664;DHT22;72375;59.302;18.204;2024-01-30T08:59:12;4.00;99.90
11664;DHT22;72375;59.302;18.204;2024-01-30T09:01:59;4.00;99.90
11664;DHT22;72375;59.302;18.204;2024-01-30T09:04:44;4.00;99.90
11664;DHT22;72375;59.302;18.204;2024-01-30T09:07:30;4.10;99.90
11664;DHT22;72375;59.302;18.204;2024-01-30T09:10:16;4.10;99.90
11664;DHT22;72375;59.302;18.204;2024-01-30T09:13:02;4.10;99.90
11664;DHT22;72375;59.302;18.204;2024-01-30T09:15:47;4.10;99.90
11664;DHT22;72375;59.302;18.204;2024-01-30T09:18:34;4.20;99.90
11664;DHT22;72375;59.302;18.204;2024-01-30T09:21:20;4.20;99.90
11664;DHT22;72375;59.302;18.204;2024-01-30T09:24:06;4.20;99.90
11664;DHT22;72375;59.302;18.204;2024-01-30T09:26:52;4.30;99.90
11664;DHT22;72375;59.302;18.204;2024-01-30T09:29:38;4.30;99.90
11664;DHT22;72375;59.302;18.204;2024-01-30T09:32:24;4.40;99.90
11664;DHT22;72375;59.302;18.204;2024-01-30T09:35:11;4.30;99.90
11664;DHT22;72375;59.302;18.204;2024-01-30T09:37:56;4.40;99.90
11664;DHT22;72375;59.302;18.204;2024-01-30T09:40:42;4.40;99.90
11664;DHT22;72375;59.302;18.204;2024-01-30T09:43:31;4.40;99.90
11664;DHT22;72375;59.302;18.204;2024-01-30T09:46:20;4.40;99.90
11664;DHT22;72375;59.302;18.204;2024-01-30T09:49:08;4.50;99.90
11664;DHT22;72375;59.302;18.204;2024-01-30T09:51:55;4.50;99.90
11664;DHT22;72375;59.302;18.204;2024-01-30T09:54:42;4.50;99.90
11664;DHT22;72375;59.302;18.204;2024-01-30T09:57:28;4.50;99.90
11664;DHT22;72375;59.302;18.204;2024-01-30T10:00:14;4.60;99.90
11664;DHT22;72375;59.302;18.204;2024-01-30T10:03:00;4.60;99.90
11664;DHT22;72375;59.302;18.204;2024-01-30T10:05:51;4.60;99.90
11664;DHT22;72375;59.302;18.204;2024-01-30T10:08:38;4.70;99.90
11664;DHT22;72375;59.302;18.204;2024-01-30T10:11:24;4.80;99.90
11664;DHT22;72375;59.302;18.204;2024-01-30T10:14:09;4.70;99.90
11664;DHT22;72375;59.302;18.204;2024-01-30T10:16:55;4.80;99.90
11664;DHT22;72375;59.302;18.204;2024-01-30T10:19:41;4.80;99.90
11664;DHT22;72375;59.302;18.204;2024-01-30T10:22:27;4.80;99.90
11664;DHT22;72375;59.302;18.204;2024-01-30T10:25:15;4.80;99.90
11664;DHT22;72375;59.302;18.204;2024-01-30T10:28:01;4.90;99.90
11664;DHT22;72375;59.302;18.204;2024-01-30T10:30:46;4.90;99.90
11664;DHT22;72375;59.302;18.204;2024-01-30T10:33:32;4.90;99.90
11664;DHT22;72375;59.302;18.204;2024-01-30T10:36:18;4.90;99.90
11664;DHT22;72375;59.302;18.204;2024-01-30T10:39:05;4.90;99.90
11664;DHT22;72375;59.302;18.204;2024-01-30T10:41:56;5.00;99.90
11664;DHT22;72375;59.302;18.204;2024-01-30T10:44:56;5.00;99.90
11664;DHT22;72375;59.302;18.204;2024-01-30T10:47:46;5.00;99.90
11664;DHT22;72375;59.302;18.204;2024-01-30T10:50:34;5.00;99.90
11664;DHT22;72375;59.302;18.204;2024-01-30T10:53:21;5.00;99.90
11664;DHT22;72375;59.302;18.204;2024-01-30T10:56:08;5.00;99.90
11664;DHT22;72375;59.302;18.204;2024-01-30T10:58:57;5.00;99.90
11664;DHT22;72375;59.302;18.204;2024-01-30T11:01:43;5.00;99.90
11664;DHT22;72375;59.302;18.204;2024-01-30T11:04:36;5.10;99.90
11664;DHT22;72375;59.302;18.204;2024-01-30T11:07:24;5.10;99.90
11664;DHT22;72375;59.302;18.204;2024-01-30T11:10:12;5.10;99.90
11664;DHT22;72375;59.302;18.204;2024-01-30T11:12:59;5.10;99.90
11664;DHT22;72375;59.302;18.204;2024-01-30T11:15:49;5.20;99.90
11664;DHT22;72375;59.302;18.204;2024-01-30T11:18:36;5.20;99.90
11664;DHT22;72375;59.302;18.204;2024-01-30T11:21:25;5.30;99.90
11664;DHT22;72375;59.302;18.204;2024-01-30T11:24:14;5.40;99.90
11664;DHT22;72375;59.302;18.204;2024-01-30T11:27:00;5.50;99.90
11664;DHT22;72375;59.302;18.204;2024-01-30T11:29:50;5.60;99.90
11664;DHT22;72375;59.302;18.204;2024-01-30T11:32:37;5.60;99.90
11664;DHT22;72375;59.302;18.204;2024-01-30T11:35:24;5.70;99.90
11664;DHT22;72375;59.302;18.204;2024-01-30T11:38:11;5.70;99.90
11664;DHT22;72375;59.302;18.204;2024-01-30T11:40:59;5.70;99.90
11664;DHT22;72375;59.302;18.204;2024-01-30T11:43:51;5.70;99.90
11664;DHT22;72375;59.302;18.204;2024-01-30T11:46:37;5.60;99.90
11664;DHT22;72375;59.302;18.204;2024-01-30T11:49:24;5.60;99.90
11664;DHT22;72375;59.302;18.204;2024-01-30T11:52:09;5.70;99.90
11664;DHT22;72375;59.302;18.204;2024-01-30T11:54:55;5.70;99.90
11664;DHT22;72375;59.302;18.204;2024-01-30T11:57:41;5.70;99.90
11664;DHT22;72375;59.302;18.204;2024-01-30T12:00:26;5.70;99.90
11664;DHT22;72375;59.302;18.204;2024-01-30T12:03:12;5.70;99.90
11664;DHT22;72375;59.302;18.204;2024-01-30T12:05:59;5.80;99.90
11664;DHT22;72375;59.302;18.204;2024-01-30T12:08:58;5.80;99.90
11664;DHT22;72375;59.302;18.204;2024-01-30T12:11:44;5.80;99.90
11664;DHT22;72375;59.302;18.204;2024-01-30T12:14:30;5.80;99.90
11664;DHT22;72375;59.302;18.204;2024-01-30T12:17:24;5.80;99.90
11664;DHT22;72375;59.302;18.204;2024-01-30T12:20:11;5.80;99.90
11664;DHT22;72375;59.302;18.204;2024-01-30T12:22:58;5.90;99.90
11664;DHT22;72375;59.302;18.204;2024-01-30T12:25:43;5.80;99.90
11664;DHT22;72375;59.302;18.204;2024-01-30T12:28:29;5.90;99.90
11664;DHT22;72375;59.302;18.204;2024-01-30T12:31:15;5.90;99.90
11664;DHT22;72375;59.302;18.204;2024-01-30T12:34:01;5.90;99.90
11664;DHT22;72375;59.302;18.204;2024-01-30T12:36:47;5.90;99.90
11664;DHT22;72375;59.302;18.204;2024-01-30T12:39:34;5.90;99.90
11664;DHT22;72375;59.302;18.204;2024-01-30T12:42:21;5.90;99.90
11664;DHT22;72375;59.302;18.204;2024-01-30T12:45:08;5.80;99.90
11664;DHT22;72375;59.302;18.204;2024-01-30T12:47:53;5.80;99.90
11664;DHT22;72375;59.302;18.204;2024-01-30T12:50:39;5.90;99.90
11664;DHT22;72375;59.302;18.204;2024-01-30T12:53:24;5.80;99.90
11664;DHT22;72375;59.302;18.204;2024-01-30T12:56:12;5.80;99.90
11664;DHT22;72375;59.302;18.204;2024-01-30T12:58:58;5.90;99.90
11664;DHT22;72375;59.302;18.204;2024-01-30T13:01:44;5.80;99.90
11664;DHT22;72375;59.302;18.204;2024-01-30T13:04:29;5.80;99.90
11664;DHT22;72375;59.302;18.204;2024-01-30T13:07:15;5.80;99.90
11664;DHT22;72375;59.302;18.204;2024-01-30T13:10:01;5.80;99.90
11664;DHT22;72375;59.302;18.204;2024-01-30T13:12:49;5.80;99.90
11664;DHT22;72375;59.302;18.204;2024-01-30T13:15:34;5.80;99.90
11664;DHT22;72375;59.302;18.204;2024-01-30T13:18:20;5.80;99.90
11664;DHT22;72375;59.302;18.204;2024-01-30T13:21:06;5.80;99.90
11664;DHT22;72375;59.302;18.204;2024-01-30T13:23:52;5.80;99.90
11664;DHT22;72375;59.302;18.204;2024-01-30T13:26:38;5.80;99.90
11664;DHT22;72375;59.302;18.204;2024-01-30T13:29:25;5.80;99.90
11664;DHT22;72375;59.302;18.204;2024-01-30T13:32:11;5.70;99.90
11664;DHT22;72375;59.302;18.204;2024-01-30T13:34:57;5.70;99.90
11664;DHT22;72375;59.302;18.204;2024-01-30T13:37:42;5.70;99.90
11664;DHT22;72375;59.302;18.204;2024-01-30T13:40:28;5.70;99.90
11664;DHT22;72375;59.302;18.204;2024-01-30T13:43:14;5.70;99.90
11664;DHT22;72375;59.302;18.204;2024-01-30T13:46:02;5.70;99.90
11664;DHT22;72375;59.302;18.204;2024-01-30T13:48:47;5.70;99.90
11664;DHT22;72375;59.302;18.204;2024-01-30T13:51:33;5.80;99.90
11664;DHT22;72375;59.302;18.204;2024-01-30T13:54:19;5.70;99.90
11664;DHT22;72375;59.302;18.204;2024-01-30T13:57:05;5.70;99.90
11664;DHT22;72375;59.302;18.204;2024-01-30T13:59:51;5.80;99.90
11664;DHT22;72375;59.302;18.204;2024-01-30T14:02:39;5.70;99.90
11664;DHT22;72375;59.302;18.204;2024-01-30T14:05:25;5.80;99.90
11664;DHT22;72375;59.302;18.204;2024-01-30T14:08:11;5.70;99.90
11664;DHT22;72375;59.302;18.204;2024-01-30T14:10:57;5.70;99.90
11664;DHT22;72375;59.302;18.204;2024-01-30T14:13:42;5.70;99.90
11664;DHT22;72375;59.302;18.204;2024-01-30T14:16:28;5.80;99.90
11664;DHT22;72375;59.302;18.204;2024-01-30T14:19:15;5.80;99.90
11664;DHT22;72375;59.302;18.204;2024-01-30T14:22:00;5.70;99.90
11664;DHT22;72375;59.302;18.204;2024-01-30T14:24:46;5.70;99.90
11664;DHT22;72375;59.302;18.204;2024-01-30T14:27:32;5.70;99.90
11664;DHT22;72375;59.302;18.204;2024-01-30T14:30:18;5.80;99.90
11664;DHT22;72375;59.302;18.204;2024-01-30T14:33:04;5.80;99.90
11664;DHT22;72375;59.302;18.204;2024-01-30T14:35:52;5.70;99.90
11664;DHT22;72375;59.302;18.204;2024-01-30T14:38:38;5.70;99.90
11664;DHT22;72375;59.302;18.204;2024-01-30T14:41:23;5.70;99.90
11664;DHT22;72375;59.302;18.204;2024-01-30T14:44:09;5.70;99.90
11664;DHT22;72375;59.302;18.204;2024-01-30T14:46:55;5.70;99.90
11664;DHT22;72375;59.302;18.204;2024-01-30T14:49:41;5.70;99.90
11664;DHT22;72375;59.302;18.204;2024-01-30T14:52:28;5.70;99.90
11664;DHT22;72375;59.302;18.204;2024-01-30T14:55:13;5.70;99.90
11664;DHT22;72375;59.302;18.204;2024-01-30T14:57:59;5.70;99.90
11664;DHT22;72375;59.302;18.204;2024-01-30T15:00:46;5.70;99.90
11664;DHT22;72375;59.302;18.204;2024-01-30T15:03:32;5.70;99.90
11664;DHT22;72375;59.302;18.204;2024-01-30T15:06:17;5.60;99.90
11664;DHT22;72375;59.302;18.204;2024-01-30T15:09:05;5.70;99.90
11664;DHT22;72375;59.302;18.204;2024-01-30T15:11:50;5.70;99.90
11664;DHT22;72375;59.302;18.204;2024-01-30T15:14:36;5.60;99.90
11664;DHT22;72375;59.302;18.204;2024-01-30T15:17:21;5.70;99.90
11664;DHT22;72375;59.302;18.204;2024-01-30T15:20:07;5.60;99.90
11664;DHT22;72375;59.302;18.204;2024-01-30T15:22:53;5.70;99.90
11664;DHT22;72375;59.302;18.204;2024-01-30T15:25:40;5.60;99.90
11664;DHT22;72375;59.302;18.204;2024-01-30T15:28:34;5.70;99.90
11664;DHT22;72375;59.302;18.204;2024-01-30T15:31:22;5.70;99.90
11664;DHT22;72375;59.302;18.204;2024-01-30T15:34:07;5.60;99.90
11664;DHT22;72375;59.302;18.204;2024-01-30T15:36:53;5.60;99.90
11664;DHT22;72375;59.302;18.204;2024-01-30T15:39:39;5.70;99.90
11664;DHT22;72375;59.302;18.204;2024-01-30T15:42:26;5.70;99.90
11664;DHT22;72375;59.302;18.204;2024-01-30T15:45:11;5.60;99.90
11664;DHT22;72375;59.302;18.204;2024-01-30T15:47:57;5.60;99.90
11664;DHT22;72375;59.302;18.204;2024-01-30T15:50:43;5.60;99.90
11664;DHT22;72375;59.302;18.204;2024-01-30T15:53:28;5.70;99.90
11664;DHT22;72375;59.302;18.204;2024-01-30T15:56:14;5.60;99.90
11664;DHT22;72375;59.302;18.204;2024-01-30T15:59:01;5.60;99.90
11664;DHT22;72375;59.302;18.204;2024-01-30T16:01:46;5.60;99.90
11664;DHT22;72375;59.302;18.204;2024-01-30T16:04:33;5.60;99.90
11664;DHT22;72375;59.302;18.204;2024-01-30T16:07:19;5.60;99.90
11664;DHT22;72375;59.302;18.204;2024-01-30T16:10:06;5.60;99.90
11664;DHT22;72375;59.302;18.204;2024-01-30T16:12:52;5.60;99.90
11664;DHT22;72375;59.302;18.204;2024-01-30T16:15:39;5.60;99.90
11664;DHT22;72375;59.302;18.204;2024-01-30T16:18:27;5.70;99.90
11664;DHT22;72375;59.302;18.204;2024-01-30T16:21:15;5.60;99.90
11664;DHT22;72375;59.302;18.204;2024-01-30T16:24:01;5.60;99.90
11664;DHT22;72375;59.302;18.204;2024-01-30T16:26:46;5.60;99.90
11664;DHT22;72375;59.302;18.204;2024-01-30T16:29:32;5.80;99.90
11664;DHT22;72375;59.302;18.204;2024-01-30T16:32:19;5.70;99.90
11664;DHT22;72375;59.302;18.204;2024-01-30T16:35:05;5.60;99.90
11664;DHT22;72375;59.302;18.204;2024-01-30T16:37:50;5.60;99.90
11664;DHT22;72375;59.302;18.204;2024-01-30T16:40:36;5.70;99.90
11664;DHT22;72375;59.302;18.204;2024-01-30T16:43:22;5.60;99.90
11664;DHT22;72375;59.302;18.204;2024-01-30T16:46:08;5.60;99.90
11664;DHT22;72375;59.302;18.204;2024-01-30T16:48:56;5.50;99.90
11664;DHT22;72375;59.302;18.204;2024-01-30T16:51:41;5.60;99.90
11664;DHT22;72375;59.302;18.204;2024-01-30T16:54:27;5.60;99.90
11664;DHT22;72375;59.302;18.204;2024-01-30T16:57:12;5.70;99.90
11664;DHT22;72375;59.302;18.204;2024-01-30T16:59:58;5.60;99.90
11664;DHT22;72375;59.302;18.204;2024-01-30T17:02:44;5.60;99.90
11664;DHT22;72375;59.302;18.204;2024-01-30T17:05:31;5.60;99.90
11664;DHT22;72375;59.302;18.204;2024-01-30T17:08:16;5.60;99.90
11664;DHT22;72375;59.302;18.204;2024-01-30T17:11:02;5.60;99.90
11664;DHT22;72375;59.302;18.204;2024-01-30T17:13:48;5.60;99.90
11664;DHT22;72375;59.302;18.204;2024-01-30T17:16:33;5.60;99.90
11664;DHT22;72375;59.302;18.204;2024-01-30T17:19:19;5.60;99.90
11664;DHT22;72375;59.302;18.204;2024-01-30T17:22:06;5.60;99.90
11664;DHT22;72375;59.302;18.204;2024-01-30T17:24:51;5.60;99.90
11664;DHT22;72375;59.302;18.204;2024-01-30T17:27:37;5.70;99.90
11664;DHT22;72375;59.302;18.204;2024-01-30T17:30:23;5.60;99.90